Time;durP1;ratioP1;P1;durP2;ratioP2;P2;SDS_P1;SDS_P2;PMS_P1;PMS_P2;Temp;Humidity;BMP_temperature;BMP_pressure;BME280_temperature;BME280_humidity;BME280_pressure;Samples;Min_cycle;Max_cycle;Signal;HPM_P1;HPM_P2
2023/07/27 00:02:05;;;;;;;8.20;2.20;;;;;;;-128.00;-1.00;-1.00;106397;1260;1013423;-69
2023/07/27 00:04:52;;;;;;;7.50;2.00;;;;;;;-128.00;-1.00;-1.00;106316;1260;1011987;-70
2023/07/27 00:07:39;;;;;;;6.90;2.10;;;;;;;-128.00;-1.00;-1.00;106321;1258;1013359;-70
2023/07/27 00:10:27;;;;;;;9.60;2.30;;;;;;;-128.00;-1.00;-1.00;106277;1259;1009874;-71
2023/07/27 00:13:14;;;;;;;6.70;1.90;;;;;;;-128.00;-1.00;-1.00;106290;1259;1010994;-71
2023/07/27 00:16:01;;;;;;;9.60;2.30;;;;;;;-128.00;-1.00;-1.00;106325;1259;1011916;-71
2023/07/27 00:18:48;;;;;;;9.20;2.70;;;;;;;-128.00;-1.00;-1.00;106375;1261;1011830;-69
2023/07/27 00:21:45;;;;;;;7.10;1.70;;;;;;;-128.00;-1.00;-1.00;106450;1259;1013892;-70
2023/07/27 00:24:53;;;;;;;7.60;2.10;;;;;;;-128.00;-1.00;-1.00;106263;1260;1009207;-68
2023/07/27 00:28:13;;;;;;;10.40;2.50;;;;;;;-128.00;-1.00;-1.00;106682;1253;1010532;-70
2023/07/27 00:31:39;;;;;;;6.60;1.90;;;;;;;-128.00;-1.00;-1.00;106657;1253;1012830;-72
2023/07/27 00:34:47;;;;;;;8.50;1.60;;;;;;;-128.00;-1.00;-1.00;106489;1254;1012796;-71
2023/07/27 00:37:54;;;;;;;9.20;2.20;;;;;;;-128.00;-1.00;-1.00;106560;1253;1012830;-72
2023/07/27 00:41:09;;;;;;;8.40;2.00;;;;;;;-128.00;-1.00;-1.00;106487;1253;1010012;-71
2023/07/27 00:43:57;;;;;;;10.90;2.70;;;;;;;-128.00;-1.00;-1.00;106726;1254;1010470;-70
2023/07/27 00:46:43;;;;;;;7.40;1.80;;;;;;;-128.00;-1.00;-1.00;106240;1267;1012303;-74
2023/07/27 00:49:31;;;;;;;8.90;2.40;;;;;;;-128.00;-1.00;-1.00;106305;1259;1012180;-71
2023/07/27 00:52:34;;;;;;;8.40;2.10;;;;;;;-128.00;-1.00;-1.00;106387;1260;1012696;-71
2023/07/27 00:55:36;;;;;;;6.90;1.80;;;;;;;-128.00;-1.00;-1.00;106297;1259;1010682;-72
2023/07/27 00:58:23;;;;;;;8.60;2.10;;;;;;;-128.00;-1.00;-1.00;106318;1258;1011116;-71
2023/07/27 01:01:10;;;;;;;6.70;2.00;;;;;;;-128.00;-1.00;-1.00;106345;1258;1012390;-70
2023/07/27 01:03:58;;;;;;;7.30;1.90;;;;;;;-128.00;-1.00;-1.00;106372;1260;1012491;-70
2023/07/27 01:06:44;;;;;;;8.30;2.20;;;;;;;-128.00;-1.00;-1.00;106386;1259;1012367;-68
2023/07/27 01:09:31;;;;;;;6.10;1.70;;;;;;;-128.00;-1.00;-1.00;106311;1260;1010291;-68
2023/07/27 01:13:03;;;;;;;7.10;1.80;;;;;;;-128.00;-1.00;-1.00;106341;1258;1010194;-70
2023/07/27 01:16:04;;;;;;;7.50;1.90;;;;;;;-128.00;-1.00;-1.00;106222;1260;1012207;-72
2023/07/27 01:19:47;;;;;;;8.60;2.20;;;;;;;-128.00;-1.00;-1.00;106537;1254;1012217;-68
2023/07/27 01:22:58;;;;;;;6.70;1.90;;;;;;;-128.00;-1.00;-1.00;106691;1254;1012357;-70
2023/07/27 01:27:06;;;;;;;6.40;2.00;;;;;;;-128.00;-1.00;-1.00;106487;1257;1009522;-69
2023/07/27 01:30:53;;;;;;;10.00;2.10;;;;;;;-128.00;-1.00;-1.00;105952;1265;1011212;-67
2023/07/27 01:34:33;;;;;;;9.60;2.00;;;;;;;-128.00;-1.00;-1.00;106018;1265;1012695;-70
2023/07/27 01:38:08;;;;;;;;;;;;;;;;;;;;;
2023/07/27 01:41:24;;;;;;;6.20;1.90;;;;;;;-128.00;-1.00;-1.00;106047;1265;1013097;-69
2023/07/27 01:44:29;;;;;;;8.50;2.00;;;;;;;-128.00;-1.00;-1.00;106070;1265;1009891;-69
2023/07/27 01:47:36;;;;;;;7.50;2.00;;;;;;;-128.00;-1.00;-1.00;106007;1265;1011606;-69
2023/07/27 01:50:28;;;;;;;6.20;1.90;;;;;;;-128.00;-1.00;-1.00;106039;1265;1013004;-71
2023/07/27 01:53:17;;;;;;;6.80;1.90;;;;;;;-128.00;-1.00;-1.00;105877;1272;1012948;-70
2023/07/27 01:56:29;;;;;;;5.70;1.60;;;;;;;-128.00;-1.00;-1.00;106096;1262;1013533;-70
2023/07/27 01:59:51;;;;;;;8.70;2.00;;;;;;;-128.00;-1.00;-1.00;106149;1262;1010158;-70
2023/07/27 02:03:34;;;;;;;;;;;;;;;;;;;;;
2023/07/27 02:06:51;;;;;;;6.60;1.80;;;;;;;-128.00;-1.00;-1.00;106566;1256;1012819;-68
2023/07/27 02:10:26;;;;;;;6.50;2.00;;;;;;;-128.00;-1.00;-1.00;106514;1256;1012708;-70
2023/07/27 02:13:35;;;;;;;6.10;1.80;;;;;;;-128.00;-1.00;-1.00;106512;1256;1013345;-69
2023/07/27 02:20:31;;;;;;;8.60;2.00;;;;;;;-128.00;-1.00;-1.00;106498;1256;1011536;-69
2023/07/27 02:24:06;;;;;;;9.10;2.10;;;;;;;-128.00;-1.00;-1.00;106343;1257;1012374;-68
2023/07/27 02:27:45;;;;;;;7.30;2.00;;;;;;;-128.00;-1.00;-1.00;106276;1257;1012909;-69
2023/07/27 02:31:16;;;;;;;7.40;2.00;;;;;;;-128.00;-1.00;-1.00;106355;1256;1012989;-69
2023/07/27 02:34:16;;;;;;;6.10;2.00;;;;;;;-128.00;-1.00;-1.00;106478;1256;1010603;-68
2023/07/27 02:37:03;;;;;;;7.80;2.30;;;;;;;-128.00;-1.00;-1.00;106484;1253;1011294;-70
2023/07/27 02:39:52;;;;;;;7.20;2.20;;;;;;;-128.00;-1.00;-1.00;106854;1253;1012395;-69
2023/07/27 02:42:43;;;;;;;7.00;2.10;;;;;;;-128.00;-1.00;-1.00;106761;1256;1012414;-69
2023/07/27 02:46:08;;;;;;;8.20;2.10;;;;;;;-128.00;-1.00;-1.00;106622;1253;1011945;-68
2023/07/27 02:49:34;;;;;;;7.80;2.10;;;;;;;-128.00;-1.00;-1.00;106732;1253;1010158;-67
2023/07/27 02:52:55;;;;;;;7.00;2.00;;;;;;;-128.00;-1.00;-1.00;106648;1254;1011429;-68
2023/07/27 02:56:08;;;;;;;8.30;2.30;;;;;;;-128.00;-1.00;-1.00;106545;1257;1012499;-67
2023/07/27 02:59:37;;;;;;;7.30;2.10;;;;;;;-128.00;-1.00;-1.00;106521;1253;1012067;-69
2023/07/27 03:02:23;;;;;;;6.80;2.00;;;;;;;-128.00;-1.00;-1.00;106684;1254;1012397;-70
2023/07/27 03:06:02;;;;;;;5.80;1.60;;;;;;;-128.00;-1.00;-1.00;106737;1254;1009794;-69
2023/07/27 03:08:51;;;;;;;6.70;2.20;;;;;;;-128.00;-1.00;-1.00;106548;1253;1011009;-66
2023/07/27 03:11:38;;;;;;;8.10;2.40;;;;;;;-128.00;-1.00;-1.00;106574;1253;1012190;-69
2023/07/27 03:14:24;;;;;;;7.30;2.40;;;;;;;-128.00;-1.00;-1.00;106644;1257;1012581;-70
2023/07/27 03:17:11;;;;;;;6.50;1.80;;;;;;;-128.00;-1.00;-1.00;106521;1254;1013756;-70
2023/07/27 03:19:58;;;;;;;9.00;2.30;;;;;;;-128.00;-1.00;-1.00;106730;1253;1009819;-72
2023/07/27 03:22:44;;;;;;;7.60;2.10;;;;;;;-128.00;-1.00;-1.00;106855;1253;1010752;-69
2023/07/27 03:25:34;;;;;;;6.70;2.00;;;;;;;-128.00;-1.00;-1.00;106723;1253;1012591;-71
2023/07/27 03:28:21;;;;;;;7.60;2.00;;;;;;;-128.00;-1.00;-1.00;106721;1253;1013030;-68
2023/07/27 03:31:19;;;;;;;6.50;2.00;;;;;;;-128.00;-1.00;-1.00;106612;1253;1013308;-68
2023/07/27 03:34:05;;;;;;;6.70;2.20;;;;;;;-128.00;-1.00;-1.00;106742;1253;1009851;-68
2023/07/27 03:36:52;;;;;;;6.10;1.90;;;;;;;-128.00;-1.00;-1.00;106757;1253;1012074;-68
2023/07/27 03:39:41;;;;;;;7.10;2.30;;;;;;;-128.00;-1.00;-1.00;106766;1253;1012008;-70
2023/07/27 03:42:30;;;;;;;7.50;2.20;;;;;;;-128.00;-1.00;-1.00;106560;1253;1013375;-67
2023/07/27 03:45:19;;;;;;;9.60;2.30;;;;;;;-128.00;-1.00;-1.00;106771;1252;1012653;-69
2023/07/27 03:48:06;;;;;;;6.50;2.10;;;;;;;-128.00;-1.00;-1.00;106384;1258;1010660;-70
2023/07/27 03:50:53;;;;;;;7.60;2.00;;;;;;;-128.00;-1.00;-1.00;106230;1258;1011336;-69
2023/07/27 03:53:40;;;;;;;7.50;1.90;;;;;;;-128.00;-1.00;-1.00;106285;1258;1013201;-72
2023/07/27 03:56:26;;;;;;;5.50;1.70;;;;;;;-128.00;-1.00;-1.00;106293;1260;1013362;-71
2023/07/27 03:59:14;;;;;;;5.80;1.70;;;;;;;-128.00;-1.00;-1.00;106303;1258;1013404;-70
2023/07/27 04:02:01;;;;;;;6.80;2.00;;;;;;;-128.00;-1.00;-1.00;106277;1260;1009909;-71
2023/07/27 04:04:51;;;;;;;10.70;2.40;;;;;;;-128.00;-1.00;-1.00;106299;1260;1010589;-71
2023/07/27 04:07:38;;;;;;;6.90;2.20;;;;;;;-128.00;-1.00;-1.00;106129;1259;1013358;-74
2023/07/27 04:10:25;;;;;;;6.70;1.90;;;;;;;-128.00;-1.00;-1.00;106259;1259;1012371;-71
2023/07/27 04:13:14;;;;;;;6.20;1.70;;;;;;;-128.00;-1.00;-1.00;106267;1258;1013205;-71
2023/07/27 04:16:02;;;;;;;7.60;2.00;;;;;;;-128.00;-1.00;-1.00;106321;1259;1010508;-73
2023/07/27 04:18:49;;;;;;;6.00;1.90;;;;;;;-128.00;-1.00;-1.00;106169;1259;1011345;-72
2023/07/27 04:21:35;;;;;;;6.80;1.90;;;;;;;-128.00;-1.00;-1.00;106310;1257;1013007;-73
2023/07/27 04:24:22;;;;;;;7.30;2.10;;;;;;;-128.00;-1.00;-1.00;106376;1257;1012432;-71
2023/07/27 04:27:08;;;;;;;6.80;1.60;;;;;;;-128.00;-1.00;-1.00;106401;1257;1012979;-73
2023/07/27 04:29:55;;;;;;;8.10;2.10;;;;;;;-128.00;-1.00;-1.00;106345;1257;1010087;-73
2023/07/27 04:32:44;;;;;;;6.70;2.00;;;;;;;-128.00;-1.00;-1.00;106332;1257;1010975;-71
2023/07/27 04:35:31;;;;;;;7.70;1.90;;;;;;;-128.00;-1.00;-1.00;106163;1260;1012441;-73
2023/07/27 04:38:20;;;;;;;6.20;2.00;;;;;;;-128.00;-1.00;-1.00;106252;1260;1013018;-72
2023/07/27 04:41:10;;;;;;;7.00;1.90;;;;;;;-128.00;-1.00;-1.00;106210;1260;1013413;-73
2023/07/27 04:43:58;;;;;;;7.70;1.80;;;;;;;-128.00;-1.00;-1.00;106141;1260;1009416;-72
2023/07/27 04:46:45;;;;;;;5.50;1.70;;;;;;;-128.00;-1.00;-1.00;106013;1264;1010834;-72
2023/07/27 04:49:33;;;;;;;7.70;1.70;;;;;;;-128.00;-1.00;-1.00;105862;1266;1012719;-72
2023/07/27 04:52:19;;;;;;;6.00;1.80;;;;;;;-128.00;-1.00;-1.00;105902;1266;1012276;-74
2023/07/27 04:55:08;;;;;;;5.90;1.60;;;;;;;-128.00;-1.00;-1.00;105788;1263;1014334;-70
2023/07/27 04:57:55;;;;;;;6.50;1.80;;;;;;;-128.00;-1.00;-1.00;105863;1264;1010621;-72
2023/07/27 05:00:56;;;;;;;7.60;1.80;;;;;;;-128.00;-1.00;-1.00;106068;1264;1011078;-74
2023/07/27 05:03:44;;;;;;;6.70;1.60;;;;;;;-128.00;-1.00;-1.00;106030;1264;1012696;-71
2023/07/27 05:06:31;;;;;;;6.50;1.50;;;;;;;-128.00;-1.00;-1.00;106123;1260;1012948;-70
2023/07/27 05:09:19;;;;;;;6.70;1.80;;;;;;;-128.00;-1.00;-1.00;106416;1257;1012908;-76
2023/07/27 05:12:06;;;;;;;6.90;1.60;;;;;;;-128.00;-1.00;-1.00;106305;1258;1009757;-72
2023/07/27 05:14:52;;;;;;;6.10;1.80;;;;;;;-128.00;-1.00;-1.00;106315;1257;1011173;-71
2023/07/27 05:17:40;;;;;;;6.40;1.80;;;;;;;-128.00;-1.00;-1.00;106559;1253;1012463;-72
2023/07/27 05:20:35;;;;;;;8.00;2.60;;;;;;;-128.00;-1.00;-1.00;106646;1253;1012065;-73
2023/07/27 05:23:22;;;;;;;8.60;3.70;;;;;;;-128.00;-1.00;-1.00;106736;1253;1012398;-71
2023/07/27 05:26:10;;;;;;;7.80;2.20;;;;;;;-128.00;-1.00;-1.00;106545;1254;1010054;-73
2023/07/27 05:28:56;;;;;;;5.20;1.60;;;;;;;-128.00;-1.00;-1.00;106786;1254;1011304;-72
2023/07/27 05:31:47;;;;;;;7.40;2.00;;;;;;;-128.00;-1.00;-1.00;106697;1253;1012319;-74
2023/07/27 05:34:34;;;;;;;7.80;2.80;;;;;;;-128.00;-1.00;-1.00;106607;1254;1013095;-72
2023/07/27 05:37:21;;;;;;;5.80;1.50;;;;;;;-128.00;-1.00;-1.00;106631;1254;1012898;-73
2023/07/27 05:40:09;;;;;;;7.20;1.50;;;;;;;-128.00;-1.00;-1.00;106380;1256;1009301;-74
2023/07/27 05:42:56;;;;;;;5.40;1.30;;;;;;;-128.00;-1.00;-1.00;106423;1254;1011002;-75
2023/07/27 05:45:46;;;;;;;5.80;1.30;;;;;;;-128.00;-1.00;-1.00;106618;1253;1012885;-71
2023/07/27 05:48:34;;;;;;;7.70;1.60;;;;;;;-128.00;-1.00;-1.00;106459;1253;1012573;-73
2023/07/27 05:51:20;;;;;;;6.90;1.70;;;;;;;-128.00;-1.00;-1.00;106562;1253;1012513;-74
2023/07/27 05:54:06;;;;;;;6.50;1.50;;;;;;;-128.00;-1.00;-1.00;106575;1253;1010072;-75
2023/07/27 05:56:56;;;;;;;6.10;1.50;;;;;;;-128.00;-1.00;-1.00;106867;1253;1011506;-73
2023/07/27 05:59:42;;;;;;;7.10;1.50;;;;;;;-128.00;-1.00;-1.00;106708;1253;1013323;-77
2023/07/27 06:02:50;;;;;;;7.20;1.60;;;;;;;-128.00;-1.00;-1.00;106630;1254;1013058;-76
2023/07/27 06:05:45;;;;;;;6.20;1.60;;;;;;;-128.00;-1.00;-1.00;106712;1253;1013783;-78
2023/07/27 06:08:33;;;;;;;6.60;1.70;;;;;;;-128.00;-1.00;-1.00;106754;1253;1009376;-77
2023/07/27 06:11:21;;;;;;;6.10;1.40;;;;;;;-128.00;-1.00;-1.00;106711;1252;1011093;-73
2023/07/27 06:14:10;;;;;;;6.90;1.60;;;;;;;-128.00;-1.00;-1.00;106413;1253;1012989;-78
2023/07/27 06:16:56;;;;;;;5.40;1.50;;;;;;;-128.00;-1.00;-1.00;106719;1253;1012511;-79
2023/07/27 06:19:45;;;;;;;5.80;1.40;;;;;;;-128.00;-1.00;-1.00;106753;1253;1012740;-79
2023/07/27 06:22:41;;;;;;;6.50;1.40;;;;;;;-128.00;-1.00;-1.00;106758;1253;1009975;-78
2023/07/27 06:25:31;;;;;;;9.80;1.90;;;;;;;-128.00;-1.00;-1.00;106523;1253;1011523;-77
2023/07/27 06:28:20;;;;;;;6.60;1.40;;;;;;;-128.00;-1.00;-1.00;106679;1254;1012319;-76
2023/07/27 06:31:07;;;;;;;6.30;1.60;;;;;;;-128.00;-1.00;-1.00;106603;1254;1012094;-75
2023/07/27 06:33:53;;;;;;;5.70;1.50;;;;;;;-128.00;-1.00;-1.00;106691;1253;1012419;-73
2023/07/27 06:36:40;;;;;;;5.40;1.40;;;;;;;-128.00;-1.00;-1.00;106707;1253;1010069;-72
2023/07/27 06:39:28;;;;;;;6.90;1.70;;;;;;;-128.00;-1.00;-1.00;106163;1253;1010444;-72
2023/07/27 06:42:14;;;;;;;5.50;1.30;;;;;;;-128.00;-1.00;-1.00;106687;1253;1012631;-74
2023/07/27 06:45:01;;;;;;;6.60;1.30;;;;;;;-128.00;-1.00;-1.00;106562;1257;1012021;-73
2023/07/27 06:47:49;;;;;;;6.30;1.40;;;;;;;-128.00;-1.00;-1.00;106598;1253;1012964;-74
2023/07/27 06:50:36;;;;;;;5.50;1.20;;;;;;;-128.00;-1.00;-1.00;106709;1253;1010199;-73
2023/07/27 06:53:23;;;;;;;5.10;1.20;;;;;;;-128.00;-1.00;-1.00;106526;1253;1011792;-75
2023/07/27 06:56:11;;;;;;;5.80;1.20;;;;;;;-128.00;-1.00;-1.00;106561;1253;1012826;-75
2023/07/27 06:58:58;;;;;;;6.20;1.10;;;;;;;-128.00;-1.00;-1.00;106529;1253;1011760;-78
2023/07/27 07:01:47;;;;;;;5.30;1.00;;;;;;;-128.00;-1.00;-1.00;106483;1253;1013628;-77
2023/07/27 07:04:35;;;;;;;4.70;1.00;;;;;;;-128.00;-1.00;-1.00;106579;1259;1009806;-75
2023/07/27 07:07:25;;;;;;;4.40;1.00;;;;;;;-128.00;-1.00;-1.00;106845;1253;1010471;-76
2023/07/27 07:10:15;;;;;;;4.70;0.90;;;;;;;-128.00;-1.00;-1.00;106456;1259;1012339;-76
2023/07/27 07:13:03;;;;;;;5.80;1.10;;;;;;;-128.00;-1.00;-1.00;106414;1257;1011879;-74
2023/07/27 07:15:50;;;;;;;6.70;1.00;;;;;;;-128.00;-1.00;-1.00;106440;1253;1012079;-75
2023/07/27 07:18:38;;;;;;;6.10;1.10;;;;;;;-128.00;-1.00;-1.00;106562;1253;1010714;-76
2023/07/27 07:21:24;;;;;;;6.00;1.00;;;;;;;-128.00;-1.00;-1.00;106645;1253;1010989;-76
2023/07/27 07:24:10;;;;;;;5.10;1.00;;;;;;;-128.00;-1.00;-1.00;106728;1253;1013348;-76
2023/07/27 07:27:00;;;;;;;4.60;0.90;;;;;;;-128.00;-1.00;-1.00;106596;1253;1012573;-76
2023/07/27 07:29:52;;;;;;;5.60;1.00;;;;;;;-128.00;-1.00;-1.00;106766;1253;1014156;-76
2023/07/27 07:32:39;;;;;;;5.50;0.90;;;;;;;-128.00;-1.00;-1.00;106591;1253;1010416;-75
2023/07/27 07:35:25;;;;;;;4.80;0.90;;;;;;;-128.00;-1.00;-1.00;106711;1254;1011089;-77
2023/07/27 07:38:12;;;;;;;4.60;0.70;;;;;;;-128.00;-1.00;-1.00;106706;1253;1013573;-77
2023/07/27 07:40:59;;;;;;;4.50;0.90;;;;;;;-128.00;-1.00;-1.00;106505;1257;1011831;-73
2023/07/27 07:43:45;;;;;;;5.30;1.20;;;;;;;-128.00;-1.00;-1.00;106701;1253;1012618;-75
2023/07/27 07:46:34;;;;;;;5.00;0.90;;;;;;;-128.00;-1.00;-1.00;106503;1253;1009664;-73
2023/07/27 07:49:26;;;;;;;5.20;0.90;;;;;;;-128.00;-1.00;-1.00;106404;1256;1010784;-72
2023/07/27 07:52:13;;;;;;;6.50;1.10;;;;;;;-128.00;-1.00;-1.00;106427;1256;1012835;-74
2023/07/27 07:55:03;;;;;;;5.30;1.20;;;;;;;-128.00;-1.00;-1.00;106386;1259;1012729;-72
2023/07/27 07:57:53;;;;;;;6.30;1.20;;;;;;;-128.00;-1.00;-1.00;106447;1256;1013047;-74
2023/07/27 08:00:40;;;;;;;6.00;1.50;;;;;;;-128.00;-1.00;-1.00;106375;1256;1009347;-73
2023/07/27 08:03:33;;;;;;;5.40;1.50;;;;;;;-128.00;-1.00;-1.00;106414;1256;1010505;-74
2023/07/27 08:06:20;;;;;;;5.70;0.90;;;;;;;-128.00;-1.00;-1.00;106439;1256;1013641;-73
2023/07/27 08:09:10;;;;;;;4.80;1.30;;;;;;;-128.00;-1.00;-1.00;106256;1257;1013321;-74
2023/07/27 08:11:59;;;;;;;6.50;1.40;;;;;;;-128.00;-1.00;-1.00;106468;1256;1012193;-72
2023/07/27 08:14:46;;;;;;;5.80;2.00;;;;;;;-128.00;-1.00;-1.00;106353;1257;1009709;-74
2023/07/27 08:17:34;;;;;;;6.40;2.40;;;;;;;-128.00;-1.00;-1.00;106395;1256;1010394;-73
2023/07/27 08:20:23;;;;;;;4.70;1.00;;;;;;;-128.00;-1.00;-1.00;106504;1254;1013390;-75
2023/07/27 08:23:10;;;;;;;3.80;0.80;;;;;;;-128.00;-1.00;-1.00;106597;1253;1012172;-73
2023/07/27 08:25:58;;;;;;;4.30;1.10;;;;;;;-128.00;-1.00;-1.00;106467;1253;1012869;-77
2023/07/27 08:28:47;;;;;;;5.60;1.30;;;;;;;-128.00;-1.00;-1.00;106557;1253;1010024;-73
2023/07/27 08:31:47;;;;;;;5.70;1.30;;;;;;;-128.00;-1.00;-1.00;106681;1253;1011020;-75
2023/07/27 08:34:34;;;;;;;5.40;1.00;;;;;;;-128.00;-1.00;-1.00;106513;1253;1012234;-72
2023/07/27 08:37:21;;;;;;;4.90;1.00;;;;;;;-128.00;-1.00;-1.00;106629;1259;1012563;-76
2023/07/27 08:40:09;;;;;;;5.80;1.10;;;;;;;-128.00;-1.00;-1.00;106461;1253;1013486;-74
2023/07/27 08:42:57;;;;;;;5.30;1.00;;;;;;;-128.00;-1.00;-1.00;106548;1253;1009350;-73
2023/07/27 08:45:46;;;;;;;5.30;1.20;;;;;;;-128.00;-1.00;-1.00;106702;1252;1011235;-71
2023/07/27 08:48:34;;;;;;;6.00;1.40;;;;;;;-128.00;-1.00;-1.00;106617;1253;1012696;-72
2023/07/27 08:51:35;;;;;;;5.20;1.50;;;;;;;-128.00;-1.00;-1.00;106553;1253;1013049;-72
2023/07/27 08:54:23;;;;;;;5.50;1.00;;;;;;;-128.00;-1.00;-1.00;106714;1253;1013068;-77
2023/07/27 08:57:11;;;;;;;5.40;1.80;;;;;;;-128.00;-1.00;-1.00;106590;1253;1009634;-72
2023/07/27 08:59:59;;;;;;;5.50;1.00;;;;;;;-128.00;-1.00;-1.00;106553;1253;1011228;-73
2023/07/27 09:02:47;;;;;;;4.90;1.00;;;;;;;-128.00;-1.00;-1.00;106629;1253;1011958;-75
2023/07/27 09:05:41;;;;;;;4.00;0.80;;;;;;;-128.00;-1.00;-1.00;106649;1253;1012252;-75
2023/07/27 09:08:29;;;;;;;4.30;0.80;;;;;;;-128.00;-1.00;-1.00;106621;1253;1012944;-73
2023/07/27 09:11:20;;;;;;;5.60;0.90;;;;;;;-128.00;-1.00;-1.00;106694;1253;1009407;-73
2023/07/27 09:14:09;;;;;;;5.90;1.10;;;;;;;-128.00;-1.00;-1.00;106570;1253;1011553;-72
2023/07/27 09:16:57;;;;;;;5.40;0.90;;;;;;;-128.00;-1.00;-1.00;106562;1253;1012755;-75
2023/07/27 09:19:44;;;;;;;4.60;1.00;;;;;;;-128.00;-1.00;-1.00;106530;1253;1011900;-72
2023/07/27 09:22:33;;;;;;;4.70;0.90;;;;;;;-128.00;-1.00;-1.00;106610;1252;1013213;-74
2023/07/27 09:25:23;;;;;;;5.00;1.00;;;;;;;-128.00;-1.00;-1.00;106702;1253;1010102;-72
2023/07/27 09:28:11;;;;;;;4.60;1.00;;;;;;;-128.00;-1.00;-1.00;106499;1253;1011188;-74
2023/07/27 09:31:00;;;;;;;5.60;1.40;;;;;;;-128.00;-1.00;-1.00;106583;1254;1012137;-72
2023/07/27 09:33:50;;;;;;;5.40;1.20;;;;;;;-128.00;-1.00;-1.00;106582;1253;1013000;-71
2023/07/27 09:36:38;;;;;;;5.40;1.20;;;;;;;-128.00;-1.00;-1.00;106437;1253;1013047;-70
2023/07/27 09:39:27;;;;;;;5.70;1.30;;;;;;;-128.00;-1.00;-1.00;106807;1254;1009983;-72
2023/07/27 09:42:14;;;;;;;6.90;2.00;;;;;;;-128.00;-1.00;-1.00;106687;1255;1011657;-75
2023/07/27 09:45:02;;;;;;;6.30;2.30;;;;;;;-128.00;-1.00;-1.00;106660;1256;1011709;-70
2023/07/27 09:47:51;;;;;;;5.70;1.00;;;;;;;-128.00;-1.00;-1.00;106724;1253;1012774;-70
2023/07/27 09:50:40;;;;;;;4.80;0.80;;;;;;;-128.00;-1.00;-1.00;106670;1253;1012572;-74
2023/07/27 09:53:32;;;;;;;5.10;1.20;;;;;;;-128.00;-1.00;-1.00;106422;1253;1010865;-72
2023/07/27 09:56:19;;;;;;;5.10;1.30;;;;;;;-128.00;-1.00;-1.00;106643;1253;1010867;-73
2023/07/27 09:59:07;;;;;;;5.60;1.20;;;;;;;-128.00;-1.00;-1.00;106750;1253;1013477;-70
2023/07/27 10:01:53;;;;;;;4.90;1.00;;;;;;;-128.00;-1.00;-1.00;106524;1253;1013324;-71
2023/07/27 10:04:46;;;;;;;6.00;1.10;;;;;;;-128.00;-1.00;-1.00;106693;1253;1012584;-70
2023/07/27 10:07:34;;;;;;;5.70;1.20;;;;;;;-128.00;-1.00;-1.00;106446;1253;1010495;-72
2023/07/27 10:10:42;;;;;;;6.00;1.40;;;;;;;-128.00;-1.00;-1.00;106551;1256;1011500;-75
2023/07/27 10:13:28;;;;;;;4.60;1.10;;;;;;;-128.00;-1.00;-1.00;106590;1254;1013017;-77
2023/07/27 10:16:19;;;;;;;5.30;1.30;;;;;;;-128.00;-1.00;-1.00;106672;1256;1012147;-71
2023/07/27 10:19:05;;;;;;;6.90;1.00;;;;;;;-128.00;-1.00;-1.00;106610;1253;1013393;-71
2023/07/27 10:21:52;;;;;;;4.90;1.00;;;;;;;-128.00;-1.00;-1.00;106611;1253;1010164;-73
2023/07/27 10:24:53;;;;;;;4.50;0.90;;;;;;;-128.00;-1.00;-1.00;106622;1253;1012018;-71
2023/07/27 10:27:55;;;;;;;4.60;1.10;;;;;;;-128.00;-1.00;-1.00;106646;1253;1012509;-70
2023/07/27 10:30:43;;;;;;;5.10;0.90;;;;;;;-128.00;-1.00;-1.00;106804;1253;1012281;-70
2023/07/27 10:33:29;;;;;;;4.70;1.00;;;;;;;-128.00;-1.00;-1.00;106688;1253;1012973;-70
2023/07/27 10:36:20;;;;;;;5.00;1.00;;;;;;;-128.00;-1.00;-1.00;106715;1253;1010554;-72
2023/07/27 10:39:15;;;;;;;5.70;1.20;;;;;;;-128.00;-1.00;-1.00;106616;1252;1010849;-71
2023/07/27 10:42:05;;;;;;;5.10;1.00;;;;;;;-128.00;-1.00;-1.00;106616;1253;1013674;-70
2023/07/27 10:45:05;;;;;;;5.10;0.90;;;;;;;-128.00;-1.00;-1.00;106593;1253;1011950;-74
2023/07/27 10:47:58;;;;;;;4.70;1.00;;;;;;;-128.00;-1.00;-1.00;106615;1253;1013036;-78
2023/07/27 10:50:51;;;;;;;5.60;1.00;;;;;;;-128.00;-1.00;-1.00;106591;1253;1009863;-75
2023/07/27 10:53:38;;;;;;;4.30;0.90;;;;;;;-128.00;-1.00;-1.00;106702;1253;1011017;-76
2023/07/27 10:56:26;;;;;;;5.70;0.90;;;;;;;-128.00;-1.00;-1.00;106705;1255;1011865;-76
2023/07/27 10:59:15;;;;;;;4.50;1.00;;;;;;;-128.00;-1.00;-1.00;106737;1254;1012204;-74
2023/07/27 11:02:04;;;;;;;4.60;0.90;;;;;;;-128.00;-1.00;-1.00;106827;1253;1012299;-79
2023/07/27 11:04:57;;;;;;;4.50;1.10;;;;;;;-128.00;-1.00;-1.00;106768;1253;1009793;-76
2023/07/27 11:07:46;;;;;;;4.50;1.20;;;;;;;-128.00;-1.00;-1.00;106754;1253;1010740;-79
2023/07/27 11:10:33;;;;;;;5.70;1.60;;;;;;;-128.00;-1.00;-1.00;106799;1253;1012078;-77
2023/07/27 11:13:23;;;;;;;5.50;1.10;;;;;;;-128.00;-1.00;-1.00;106514;1253;1013095;-78
2023/07/27 11:16:13;;;;;;;5.30;1.10;;;;;;;-128.00;-1.00;-1.00;106718;1253;1012591;-79
2023/07/27 11:19:10;;;;;;;4.80;1.50;;;;;;;-128.00;-1.00;-1.00;106580;1253;1009685;-78
2023/07/27 11:22:01;;;;;;;4.70;0.90;;;;;;;-128.00;-1.00;-1.00;106710;1253;1011552;-77
2023/07/27 11:24:48;;;;;;;4.50;0.80;;;;;;;-128.00;-1.00;-1.00;106440;1259;1012830;-77
2023/07/27 11:27:37;;;;;;;4.40;0.90;;;;;;;-128.00;-1.00;-1.00;106360;1259;1011614;-80
2023/07/27 11:30:24;;;;;;;6.10;1.40;;;;;;;-128.00;-1.00;-1.00;106498;1258;1012812;-77
2023/07/27 11:33:11;;;;;;;5.90;1.80;;;;;;;-128.00;-1.00;-1.00;106334;1259;1009981;-77
2023/07/27 11:35:58;;;;;;;5.90;2.00;;;;;;;-128.00;-1.00;-1.00;106304;1259;1012120;-78
2023/07/27 11:38:45;;;;;;;6.60;1.30;;;;;;;-128.00;-1.00;-1.00;106302;1259;1012818;-75
2023/07/27 11:41:32;;;;;;;6.80;2.20;;;;;;;-128.00;-1.00;-1.00;106390;1262;1012601;-78
2023/07/27 11:44:34;;;;;;;5.10;1.50;;;;;;;-128.00;-1.00;-1.00;106455;1258;1013266;-79
2023/07/27 11:47:22;;;;;;;5.10;1.40;;;;;;;-128.00;-1.00;-1.00;106296;1258;1010079;-76
2023/07/27 11:50:11;;;;;;;4.50;1.10;;;;;;;-128.00;-1.00;-1.00;106285;1258;1011567;-76
2023/07/27 11:53:02;;;;;;;9.30;4.80;;;;;;;-128.00;-1.00;-1.00;106351;1262;1012548;-81
2023/07/27 11:55:49;;;;;;;6.30;1.10;;;;;;;-128.00;-1.00;-1.00;106560;1254;1012953;-76
2023/07/27 11:58:37;;;;;;;3.90;0.70;;;;;;;-128.00;-1.00;-1.00;106526;1256;1012145;-77
2023/07/27 12:01:24;;;;;;;6.50;1.60;;;;;;;-128.00;-1.00;-1.00;106676;1254;1009080;-76
2023/07/27 12:04:11;;;;;;;4.40;1.00;;;;;;;-128.00;-1.00;-1.00;106701;1253;1011002;-78
2023/07/27 12:06:58;;;;;;;6.40;1.20;;;;;;;-128.00;-1.00;-1.00;106752;1254;1013065;-76
2023/07/27 12:09:45;;;;;;;5.80;1.10;;;;;;;-128.00;-1.00;-1.00;106765;1253;1012519;-74
2023/07/27 12:12:32;;;;;;;4.50;1.10;;;;;;;-128.00;-1.00;-1.00;106591;1253;1012825;-79
2023/07/27 12:15:30;;;;;;;5.80;1.60;;;;;;;-128.00;-1.00;-1.00;106513;1254;1009963;-75
2023/07/27 12:18:17;;;;;;;4.90;1.10;;;;;;;-128.00;-1.00;-1.00;106740;1253;1010285;-77
2023/07/27 12:21:04;;;;;;;5.20;1.20;;;;;;;-128.00;-1.00;-1.00;106699;1253;1012864;-77
2023/07/27 12:24:11;;;;;;;4.30;1.10;;;;;;;-128.00;-1.00;-1.00;106650;1253;1012494;-71
2023/07/27 12:27:06;;;;;;;7.00;1.10;;;;;;;-128.00;-1.00;-1.00;106488;1254;1013724;-74
2023/07/27 12:29:57;;;;;;;4.80;1.10;;;;;;;-128.00;-1.00;-1.00;106650;1253;1010511;-73
2023/07/27 12:32:44;;;;;;;4.60;1.10;;;;;;;-128.00;-1.00;-1.00;106681;1253;1011061;-75
2023/07/27 12:35:31;;;;;;;5.30;1.10;;;;;;;-128.00;-1.00;-1.00;106685;1254;1012773;-74
2023/07/27 12:38:19;;;;;;;4.90;1.10;;;;;;;-128.00;-1.00;-1.00;106554;1253;1012862;-75
2023/07/27 12:41:10;;;;;;;4.70;1.20;;;;;;;-128.00;-1.00;-1.00;106763;1253;1012078;-75
2023/07/27 12:43:57;;;;;;;5.20;1.10;;;;;;;-128.00;-1.00;-1.00;106774;1253;1009933;-75
2023/07/27 12:46:44;;;;;;;4.90;1.40;;;;;;;-128.00;-1.00;-1.00;106499;1253;1010197;-76
2023/07/27 12:49:33;;;;;;;4.80;1.10;;;;;;;-128.00;-1.00;-1.00;106546;1253;1012471;-74
2023/07/27 12:52:24;;;;;;;8.90;3.90;;;;;;;-128.00;-1.00;-1.00;106675;1254;1012431;-74
2023/07/27 12:55:12;;;;;;;8.20;2.90;;;;;;;-128.00;-1.00;-1.00;106471;1253;1013710;-75
2023/07/27 12:58:00;;;;;;;6.60;1.40;;;;;;;-128.00;-1.00;-1.00;106439;1253;1009195;-74
2023/07/27 13:00:47;;;;;;;4.80;1.20;;;;;;;-128.00;-1.00;-1.00;106645;1253;1010772;-75
2023/07/27 13:03:34;;;;;;;4.60;1.00;;;;;;;-128.00;-1.00;-1.00;106611;1253;1012454;-73
2023/07/27 13:06:22;;;;;;;4.40;1.10;;;;;;;-128.00;-1.00;-1.00;106571;1254;1012130;-72
2023/07/27 13:09:09;;;;;;;6.50;1.20;;;;;;;-128.00;-1.00;-1.00;106505;1256;1012614;-72
2023/07/27 13:11:56;;;;;;;4.80;1.20;;;;;;;-128.00;-1.00;-1.00;106611;1253;1009606;-73
2023/07/27 13:14:43;;;;;;;5.30;1.00;;;;;;;-128.00;-1.00;-1.00;106910;1253;1010820;-77
2023/07/27 13:17:31;;;;;;;6.80;1.20;;;;;;;-128.00;-1.00;-1.00;106374;1258;1012795;-72
2023/07/27 13:20:24;;;;;;;6.40;1.30;;;;;;;-128.00;-1.00;-1.00;106346;1258;1011965;-74
2023/07/27 13:23:12;;;;;;;6.00;1.80;;;;;;;-128.00;-1.00;-1.00;106423;1257;1012778;-74